Aviation Digital Data Service (ADDS)

Output produced by METARs form (1318 UTC 17 September 2019)
found at http://www.aviationweather.gov/metar/data/
 
LETO 171300Z 08001KT 9999 FEW050 28/14 Q1018 NOSIG
TAF LETO 171100Z 1712/1812 VRB04KT CAVOK TX29/1715Z TN13/1806Z 
     PROB30 
     TEMPO 1720/1801 VRB15G25KT 4000 TS SHRA FEW030CB
       
LEZG 171300Z VRB04KT 9999 FEW060 29/15 Q1016
TAF LEZG 171100Z 1712/1812 29007KT 9999 FEW060 TX32/1714Z TN19/1806Z
       
LERT 171200Z 26009KT 240V320 9999 FEW027 SCT033 25/20 Q1015 NOSIG
TAF LERT 171100Z 1712/1721 26009KT 9999 FEW020 
     PROB30 
     TEMPO 1712/1715 FEW035CB SCT040
       
LELC 171300Z 13007KT 7000 NSC 26/23 Q1016 NOSIG
TAF LELC 171100Z 1712/1812 11007KT 9999 FEW025 SCT045 TX29/1713Z TN19/1806Z 
     PROB30 
     TEMPO 1712/1715 SHRA FEW040CB 
     PROB30 
     TEMPO 1722/1806 1500 BR BKN003
       
LEAB 171300Z 13010KT 100V160 9999 FEW/// 27/14 Q1018 NOSIG
TAF LEAB 171100Z 1712/1721 15007KT CAVOK 
     TEMPO 1713/1721 FEW040TCU 
     PROB30 
     TEMPO 1719/1721 VRB15G25KT 4000 TS SHRA FEW030CB
       
LEBZ 171300Z 05002KT 9999 FEW040 30/13 Q1014
TAF LEBZ 171100Z 1712/1812 28004KT 9999 FEW045 TX33/1714Z TN18/1806Z 
     PROB30 
     TEMPO 1714/1719 4000 SHRA FEW030CB SCT040 
     TEMPO 1720/1724 05010KT
       
LEMO 171300Z VRB03KT 9999 FEW055 30/14 Q1015 NOSIG
TAF LEMO 171100Z 1712/1721 26009KT 9999 FEW045 
     PROB30 
     TEMPO 1712/1716 4000 TSRA FEW030CB SCT040
       
LESA 171300Z 07005KT 040V100 9999 FEW060CB 24/13 Q1019
TAF LESA 171100Z 1712/1812 VRB04KT CAVOK TX26/1715Z TN08/1806Z 
     TEMPO 1713/1723 4000 SHRA SCT030TCU 
     PROB40 
     TEMPO 1713/1721 VRB15G25KT 3000 TS SHRA SCT025CB 
     PROB30 
     TEMPO 1804/1807 3000 BR NSC
       
GCLP 171300Z 03021KT 9999 FEW020 25/19 Q1016 NOSIG
TAF GCLP 170800Z 1709/1809 02021KT 9999 FEW020 TX26/1714Z TN20/1805Z 
     PROB30 
     TEMPO 1712/1720 02020G30KT
       
LIED 171255Z 16010KT 9999 FEW030 31/24 Q1015 RMK FEW VIS MIN 9999 WIND THR35 15012KT WIND THR17 /////KT BLU
TAF LIED 171100Z 1712/1721 14015KT 9999 SCT025
       
LIPR 171250Z 05007KT 020V080 CAVOK 26/18 Q1014
TAF LIPR 171100Z 1712/1721 06010KT CAVOK 
     BECMG 1717/1719 VRB05KT